Time;durP1;ratioP1;P1;durP2;ratioP2;P2;SDS_P1;SDS_P2;PMS_P1;PMS_P2;Temp;Humidity;BMP_temperature;BMP_pressure;BME280_temperature;BME280_humidity;BME280_pressure;Samples;Min_cycle;Max_cycle;Signal;HPM_P1;HPM_P2
2021/04/28 00:02:09;;;;;;;3.03;1.73;;;12.40;36.60;;;;;;4932282;29;20232;-75
2021/04/28 00:04:35;;;;;;;2.75;1.70;;;12.40;36.70;;;;;;4932293;29;20173;-75
2021/04/28 00:07:03;;;;;;;3.37;1.90;;;12.40;36.80;;;;;;4930592;29;20299;-75
2021/04/28 00:09:33;;;;;;;2.90;2.20;;;12.30;37.50;;;;;;4931173;29;21019;-75
2021/04/28 00:11:59;;;;;;;3.05;2.05;;;12.30;37.10;;;;;;4931087;29;20283;-76
2021/04/28 00:14:25;;;;;;;2.17;1.50;;;12.30;37.20;;;;;;4938606;29;20176;-75
2021/04/28 00:16:51;;;;;;;2.17;1.85;;;12.30;37.50;;;;;;4930657;29;20172;-75
2021/04/28 00:19:17;;;;;;;4.53;1.80;;;12.30;37.20;;;;;;4931117;29;20252;-76
2021/04/28 00:21:43;;;;;;;5.83;1.77;;;12.30;37.10;;;;;;4930724;29;20197;-75
2021/04/28 00:24:11;;;;;;;3.20;2.17;;;12.30;37.20;;;;;;4930704;29;20577;-76
2021/04/28 00:26:37;;;;;;;3.45;2.10;;;12.30;37.70;;;;;;4914428;29;20581;-76
2021/04/28 00:29:03;;;;;;;3.40;2.33;;;12.20;37.50;;;;;;4930774;29;20169;-76
2021/04/28 00:31:30;;;;;;;2.20;2.00;;;12.20;37.70;;;;;;4930393;29;21062;-76
2021/04/28 00:33:59;;;;;;;3.00;1.75;;;12.20;37.60;;;;;;4931987;29;20192;-76
2021/04/28 00:36:30;;;;;;;5.45;2.47;;;12.20;37.40;;;;;;4931515;29;20254;-76
2021/04/28 00:38:56;;;;;;;2.83;2.53;;;12.20;38.00;;;;;;4930764;29;20173;-76
2021/04/28 00:41:23;;;;;;;5.20;2.57;;;12.20;37.60;;;;;;4934040;29;20188;-78
2021/04/28 00:43:51;;;;;;;3.63;2.13;;;12.20;37.60;;;;;;4949536;29;20196;-78
2021/04/28 00:46:16;;;;;;;3.57;2.57;;;12.10;37.80;;;;;;4947616;28;20169;-78
2021/04/28 00:48:42;;;;;;;3.40;2.10;;;12.10;37.90;;;;;;4942760;29;20181;-78
2021/04/28 00:51:08;;;;;;;2.20;1.93;;;12.10;37.90;;;;;;4945328;29;20643;-79
2021/04/28 00:53:34;;;;;;;3.75;2.10;;;12.10;37.90;;;;;;4949748;29;20571;-78
2021/04/28 00:56:00;;;;;;;2.50;2.10;;;12.10;37.80;;;;;;4932456;28;20231;-78
2021/04/28 00:58:28;;;;;;;3.08;2.03;;;12.10;37.80;;;;;;4945610;28;20179;-79
2021/04/28 01:00:58;;;;;;;9.88;2.13;;;12.00;37.80;;;;;;4946359;29;20223;-79
2021/04/28 01:03:28;;;;;;;2.60;1.90;;;12.00;38.10;;;;;;4930034;29;20594;-79
2021/04/28 01:05:57;;;;;;;2.83;1.77;;;11.90;38.00;;;;;;4946901;29;20173;-79
2021/04/28 01:08:23;;;;;;;3.45;2.45;;;11.90;38.00;;;;;;4946440;29;20244;-78
2021/04/28 01:10:50;;;;;;;2.53;2.25;;;11.90;38.60;;;;;;4944811;29;20209;-79
2021/04/28 01:13:18;;;;;;;3.30;2.17;;;11.90;38.20;;;;;;4928416;29;20241;-78
2021/04/28 01:15:44;;;;;;;2.90;1.85;;;11.90;38.20;;;;;;4927828;29;20165;-79
2021/04/28 01:18:15;;;;;;;5.25;2.47;;;11.80;38.10;;;;;;4930864;29;20188;-79
2021/04/28 01:20:42;;;;;;;3.45;2.67;;;11.80;38.40;;;;;;4929365;29;20193;-79
2021/04/28 01:23:10;;;;;;;5.75;2.53;;;11.70;38.40;;;;;;4929103;29;20201;-79
2021/04/28 01:25:37;;;;;;;3.45;2.33;;;11.70;38.80;;;;;;4944731;29;20245;-79
2021/04/28 01:28:20;;;;;;;3.63;2.35;;;11.70;38.60;;;;;;4925411;29;20298;-80
2021/04/28 01:30:55;;;;;;;4.35;2.70;;;11.70;38.80;;;;;;4917750;29;20235;-79
2021/04/28 01:33:34;;;;;;;5.97;3.03;;;11.60;38.60;;;;;;4934590;29;20169;-80
2021/04/28 01:36:01;;;;;;;4.47;3.15;;;11.60;39.50;;;;;;4934794;29;20177;-80
2021/04/28 01:38:36;;;;;;;6.00;3.50;;;11.60;39.00;;;;;;4917390;29;20235;-80
2021/04/28 01:41:03;;;;;;;4.30;3.20;;;11.60;39.20;;;;;;4917640;29;20608;-80
2021/04/28 01:43:31;;;;;;;4.63;2.80;;;11.50;39.10;;;;;;4917747;28;20181;-80
2021/04/28 01:45:57;;;;;;;2.90;2.60;;;11.50;39.10;;;;;;4934677;29;20603;-79
2021/04/28 01:48:23;;;;;;;4.03;2.50;;;11.50;39.00;;;;;;4917600;29;20208;-80
2021/04/28 01:50:50;;;;;;;3.10;2.22;;;11.50;39.30;;;;;;4920765;29;20208;-80
2021/04/28 01:53:23;;;;;;;3.35;2.80;;;11.50;39.30;;;;;;4934942;29;20242;-80
2021/04/28 01:55:51;;;;;;;6.85;3.03;;;11.50;39.30;;;;;;4934747;29;20226;-80
2021/04/28 01:58:44;;;;;;;4.45;2.67;;;11.50;39.40;;;;;;4933558;29;20652;-80
2021/04/28 02:01:23;;;;;;;3.30;3.00;;;11.40;39.30;;;;;;4933926;28;20731;-80
2021/04/28 02:03:52;;;;;;;3.60;3.05;;;11.40;39.40;;;;;;4919021;28;20181;-80
2021/04/28 02:06:18;;;;;;;3.47;3.17;;;11.40;39.60;;;;;;4939029;29;20199;-80
2021/04/28 02:08:44;;;;;;;3.07;2.77;;;11.40;39.70;;;;;;4942161;29;20169;-80
2021/04/28 02:11:12;;;;;;;3.35;2.95;;;11.30;40.00;;;;;;4941527;29;20636;-79
2021/04/28 02:13:44;;;;;;;4.68;3.15;;;11.30;40.00;;;;;;4941546;29;20197;-79
2021/04/28 02:16:38;;;;;;;2.70;2.50;;;11.30;40.00;;;;;;4972360;28;20185;-79
2021/04/28 02:19:07;;;;;;;3.13;2.40;;;11.30;39.90;;;;;;4942203;29;20232;-79
2021/04/28 02:21:40;;;;;;;3.20;2.90;;;11.30;40.00;;;;;;4942869;29;20251;-79
2021/04/28 02:24:19;;;;;;;2.80;2.60;;;11.30;40.00;;;;;;4940244;29;20189;-79
2021/04/28 02:26:48;;;;;;;3.53;3.23;;;11.20;39.90;;;;;;4938671;29;20180;-79
2021/04/28 02:29:14;;;;;;;4.95;3.50;;;11.20;39.90;;;;;;4934985;29;20181;-79
2021/04/28 02:31:42;;;;;;;3.67;2.47;;;11.20;39.90;;;;;;4934797;29;20221;-79
2021/04/28 02:34:12;;;;;;;4.45;3.42;;;11.20;40.10;;;;;;4933022;29;20299;-79
2021/04/28 02:36:55;;;;;;;4.53;2.97;;;11.10;40.20;;;;;;4932508;29;20239;-79
2021/04/28 02:39:56;;;;;;;4.20;2.95;;;11.10;40.50;;;;;;4934023;29;20181;-80
2021/04/28 02:42:23;;;;;;;3.38;3.03;;;11.10;40.50;;;;;;4937873;29;20193;-79
2021/04/28 02:44:51;;;;;;;4.07;3.33;;;11.10;40.70;;;;;;4932724;29;20165;-79
2021/04/28 02:47:22;;;;;;;5.80;3.55;;;11.00;40.50;;;;;;4932403;29;20252;-79
2021/04/28 02:49:50;;;;;;;3.50;2.50;;;11.00;41.30;;;;;;4916692;29;20525;-79
2021/04/28 02:52:39;;;;;;;3.50;3.20;;;11.00;40.70;;;;;;4943606;28;20212;-79
2021/04/28 02:55:06;;;;;;;3.50;3.15;;;11.00;40.50;;;;;;4900876;29;20637;-78
2021/04/28 02:57:33;;;;;;;4.90;2.88;;;10.90;41.30;;;;;;4933153;29;20231;-79
2021/04/28 03:00:01;;;;;;;4.80;3.65;;;10.90;41.40;;;;;;4932402;29;20573;-79
2021/04/28 03:02:30;;;;;;;3.40;3.10;;;10.90;40.90;;;;;;4932447;29;20180;-79
2021/04/28 03:04:56;;;;;;;3.50;3.20;;;10.90;40.80;;;;;;4932225;29;20192;-79
2021/04/28 03:07:41;;;;;;;4.00;3.60;;;10.90;40.80;;;;;;4933165;28;20239;-79
2021/04/28 03:10:08;;;;;;;3.40;3.20;;;10.90;40.90;;;;;;4932034;29;20165;-78
2021/04/28 03:12:38;;;;;;;4.63;3.00;;;10.80;41.40;;;;;;4932115;29;20657;-79
2021/04/28 03:15:05;;;;;;;4.00;3.25;;;10.80;41.00;;;;;;4916210;28;20660;-79
2021/04/28 03:17:31;;;;;;;5.13;3.10;;;10.80;41.10;;;;;;4931896;29;20193;-80
2021/04/28 03:20:05;;;;;;;3.78;2.90;;;10.80;41.30;;;;;;4938418;29;20188;-79
2021/04/28 03:22:39;;;;;;;2.90;2.58;;;10.80;41.30;;;;;;4931778;29;20165;-79
2021/04/28 03:25:06;;;;;;;3.65;3.17;;;10.70;41.30;;;;;;4932962;29;20173;-79
2021/04/28 03:27:32;;;;;;;3.92;3.53;;;10.70;41.50;;;;;;4931651;29;20626;-79
2021/04/28 03:29:59;;;;;;;2.78;2.55;;;10.70;41.50;;;;;;4932784;29;20261;-78
2021/04/28 03:32:24;;;;;;;4.68;3.33;;;10.60;41.30;;;;;;4933132;28;20676;-78
2021/04/28 03:35:03;;;;;;;4.55;3.33;;;10.60;41.40;;;;;;4931794;28;20275;-78
2021/04/28 03:37:28;;;;;;;3.17;2.88;;;10.50;41.40;;;;;;4931371;29;20201;-78
2021/04/28 03:39:54;;;;;;;3.47;3.10;;;10.50;41.40;;;;;;4931484;29;20569;-78
2021/04/28 03:42:23;;;;;;;6.28;3.10;;;10.50;41.40;;;;;;4931856;28;20617;-79
2021/04/28 03:44:51;;;;;;;3.38;2.90;;;10.40;41.40;;;;;;4931587;29;20173;-78
2021/04/28 03:47:20;;;;;;;3.78;2.63;;;10.40;41.40;;;;;;4931068;29;20178;-79
2021/04/28 03:49:48;;;;;;;3.42;2.67;;;10.40;41.70;;;;;;4931573;29;20169;-78
2021/04/28 03:52:14;;;;;;;4.78;3.55;;;10.40;41.70;;;;;;4932439;29;20599;-79
2021/04/28 03:55:00;;;;;;;3.58;3.28;;;10.30;41.80;;;;;;4932386;28;20242;-79
2021/04/28 03:57:26;;;;;;;5.03;3.60;;;10.30;41.90;;;;;;4920306;28;20227;-78
2021/04/28 03:59:52;;;;;;;3.30;3.00;;;10.30;42.00;;;;;;4915718;29;20742;-78
2021/04/28 04:02:18;;;;;;;4.22;2.85;;;10.20;42.00;;;;;;4899725;28;21163;-78
2021/04/28 04:05:03;;;;;;;2.65;2.45;;;10.20;42.10;;;;;;4918071;29;20181;-78
2021/04/28 04:07:46;;;;;;;4.30;3.10;;;10.20;42.00;;;;;;4932173;29;20177;-78
2021/04/28 04:10:27;;;;;;;4.70;2.97;;;10.10;42.00;;;;;;4932338;29;20632;-78
2021/04/28 04:12:53;;;;;;;3.75;2.75;;;10.10;42.00;;;;;;4915300;28;20173;-78
2021/04/28 04:15:19;;;;;;;3.40;2.43;;;10.10;42.20;;;;;;4932278;29;20181;-78
2021/04/28 04:17:44;;;;;;;2.90;2.60;;;10.10;42.20;;;;;;4914952;29;20165;-78
2021/04/28 04:20:21;;;;;;;3.78;3.30;;;10.10;42.20;;;;;;4915275;29;20201;-78
2021/04/28 04:22:51;;;;;;;3.80;3.08;;;10.10;42.40;;;;;;4915301;28;20165;-78
2021/04/28 04:25:33;;;;;;;4.05;3.65;;;10.10;42.60;;;;;;4932381;29;20260;-78
2021/04/28 04:27:59;;;;;;;5.65;3.20;;;10.10;42.90;;;;;;4914725;29;20177;-78
2021/04/28 04:31:00;;;;;;;5.65;4.00;;;10.10;42.70;;;;;;4938563;29;20216;-78
2021/04/28 04:33:45;;;;;;;4.57;3.67;;;10.10;42.80;;;;;;4937033;29;20200;-78
2021/04/28 04:36:30;;;;;;;3.47;3.10;;;10.10;42.80;;;;;;4931121;29;20177;-78
2021/04/28 04:39:28;;;;;;;2.95;2.53;;;10.10;42.80;;;;;;4909918;29;20185;-78
2021/04/28 04:42:12;;;;;;;4.20;3.40;;;10.10;42.90;;;;;;4914845;29;20197;-79
2021/04/28 04:44:44;;;;;;;3.65;3.03;;;10.10;42.90;;;;;;4931985;29;20228;-78
2021/04/28 04:47:11;;;;;;;4.60;3.45;;;10.20;43.00;;;;;;4931472;29;20196;-78
2021/04/28 04:49:38;;;;;;;4.23;3.83;;;10.20;43.10;;;;;;4931883;29;20276;-78
2021/04/28 04:52:05;;;;;;;3.80;2.95;;;10.20;43.20;;;;;;4932014;29;20293;-78
2021/04/28 04:54:31;;;;;;;3.15;2.85;;;10.20;43.20;;;;;;4931657;29;20208;-77
2021/04/28 04:56:57;;;;;;;3.40;2.63;;;10.30;43.40;;;;;;4931487;29;20621;-78
2021/04/28 04:59:23;;;;;;;3.65;2.92;;;10.30;43.40;;;;;;4931800;29;20572;-78
2021/04/28 05:01:49;;;;;;;3.73;3.33;;;10.30;43.40;;;;;;4931508;29;20672;-78
2021/04/28 05:04:15;;;;;;;5.83;4.20;;;10.40;43.60;;;;;;4931686;29;20697;-79
2021/04/28 05:06:40;;;;;;;7.00;3.10;;;10.40;43.80;;;;;;4931416;29;20173;-79
2021/04/28 05:09:06;;;;;;;7.43;3.30;;;10.40;43.50;;;;;;4914701;28;20177;-79
2021/04/28 05:11:32;;;;;;;4.70;2.77;;;10.50;43.80;;;;;;4936747;29;20633;-78
2021/04/28 05:13:57;;;;;;;4.43;2.50;;;10.50;44.00;;;;;;4931865;28;20161;-78
2021/04/28 05:16:23;;;;;;;4.87;3.70;;;10.50;44.00;;;;;;4914251;29;20288;-78
2021/04/28 05:18:49;;;;;;;4.40;3.17;;;10.60;44.10;;;;;;4931452;29;20173;-78
2021/04/28 05:21:14;;;;;;;7.70;3.83;;;10.60;44.40;;;;;;4931696;29;20236;-78
2021/04/28 05:23:40;;;;;;;5.30;4.03;;;10.70;44.20;;;;;;4915262;28;20205;-78
2021/04/28 05:26:41;;;;;;;5.10;4.30;;;10.70;44.40;;;;;;4937077;29;20211;-78
2021/04/28 05:29:07;;;;;;;4.73;4.00;;;10.70;44.00;;;;;;4914480;28;20220;-78
2021/04/28 05:31:32;;;;;;;3.00;2.70;;;10.80;44.70;;;;;;4914741;28;20224;-79
2021/04/28 05:33:58;;;;;;;4.10;3.30;;;10.80;44.50;;;;;;4931823;29;20676;-79
2021/04/28 05:36:24;;;;;;;4.45;3.78;;;10.90;45.00;;;;;;4931444;29;20184;-78
2021/04/28 05:38:51;;;;;;;4.50;3.13;;;11.00;44.50;;;;;;4899123;28;20166;-80
2021/04/28 05:41:17;;;;;;;6.35;4.05;;;11.10;44.30;;;;;;4931585;29;20611;-78
2021/04/28 05:43:45;;;;;;;3.70;3.10;;;11.20;44.30;;;;;;4931753;29;20473;-77
2021/04/28 05:46:11;;;;;;;4.82;4.18;;;11.30;44.30;;;;;;4923193;29;20181;-77
2021/04/28 05:48:36;;;;;;;3.90;3.60;;;11.40;44.70;;;;;;4919437;28;20177;-75
2021/04/28 05:51:03;;;;;;;4.93;3.50;;;11.50;44.40;;;;;;4899200;28;20685;-77
2021/04/28 05:53:28;;;;;;;9.30;4.35;;;11.60;44.40;;;;;;4966636;28;20197;-77
2021/04/28 05:55:55;;;;;;;4.10;3.57;;;11.70;44.30;;;;;;4982056;28;20202;-77
2021/04/28 05:58:21;;;;;;;4.78;3.50;;;11.80;44.40;;;;;;4998072;28;20228;-77
2021/04/28 06:00:47;;;;;;;3.87;3.10;;;11.90;44.30;;;;;;5024259;28;20190;-79
2021/04/28 06:03:12;;;;;;;4.93;3.97;;;12.00;44.30;;;;;;5025330;28;20171;-77
2021/04/28 06:05:41;;;;;;;7.70;3.50;;;12.10;44.20;;;;;;5026109;28;20576;-77
2021/04/28 06:08:07;;;;;;;4.85;3.50;;;12.20;44.40;;;;;;4994358;28;20179;-77
2021/04/28 06:10:33;;;;;;;5.80;3.63;;;12.30;44.30;;;;;;5019695;28;20214;-77
2021/04/28 06:12:59;;;;;;;4.45;4.03;;;12.40;44.20;;;;;;5023531;28;20719;-78
2021/04/28 06:15:24;;;;;;;5.07;3.80;;;12.50;44.30;;;;;;5022529;28;20194;-77
2021/04/28 06:17:50;;;;;;;3.67;3.30;;;12.50;44.30;;;;;;5018760;28;20166;-77
2021/04/28 06:20:17;;;;;;;4.40;3.97;;;12.90;44.50;;;;;;5019283;28;20723;-78
2021/04/28 06:22:43;;;;;;;6.28;3.83;;;13.40;44.80;;;;;;5019162;28;20166;-78
2021/04/28 06:25:11;;;;;;;3.58;3.20;;;14.10;45.60;;;;;;5022907;28;20190;-78
2021/04/28 06:27:37;;;;;;;3.90;2.97;;;15.00;46.10;;;;;;4903042;29;20793;-78
2021/04/28 06:30:08;;;;;;;5.53;3.70;;;15.90;46.20;;;;;;4916367;28;21008;-78
2021/04/28 06:32:34;;;;;;;5.23;3.80;;;16.90;45.90;;;;;;4899041;29;21013;-79
2021/04/28 06:35:00;;;;;;;3.47;3.03;;;17.90;45.40;;;;;;4899224;29;20945;-79
2021/04/28 06:37:26;;;;;;;3.93;3.20;;;18.70;45.60;;;;;;4920717;28;20596;-79
2021/04/28 06:39:52;;;;;;;5.67;4.10;;;19.60;44.90;;;;;;4920101;28;20601;-79
2021/04/28 06:42:18;;;;;;;4.17;3.50;;;20.30;42.60;;;;;;4916176;28;21354;-79
2021/04/28 06:44:44;;;;;;;4.73;3.70;;;20.80;42.30;;;;;;4917005;29;20185;-79
2021/04/28 06:47:12;;;;;;;5.37;4.40;;;21.40;42.80;;;;;;4929438;29;20792;-79
2021/04/28 06:49:38;;;;;;;4.03;3.20;;;22.20;38.40;;;;;;4915099;29;21128;-80
2021/04/28 06:52:04;;;;;;;3.43;3.07;;;22.70;40.70;;;;;;4900314;28;20255;-79
2021/04/28 06:54:30;;;;;;;3.63;2.83;;;23.40;41.30;;;;;;4926194;28;20498;-77
2021/04/28 06:56:55;;;;;;;3.83;3.43;;;24.00;41.00;;;;;;4886644;28;20597;-79
2021/04/28 06:59:22;;;;;;;5.07;2.97;;;24.20;39.40;;;;;;4913634;29;20240;-79
2021/04/28 07:01:52;;;;;;;4.17;3.77;;;24.60;39.40;;;;;;4915242;28;20483;-79
2021/04/28 07:04:21;;;;;;;3.53;3.27;;;25.10;38.80;;;;;;4883376;28;20581;-78
2021/04/28 07:06:48;;;;;;;5.27;3.60;;;25.50;38.30;;;;;;4898217;29;20582;-77
2021/04/28 07:09:14;;;;;;;3.37;3.07;;;25.90;38.20;;;;;;4914756;28;20609;-78
2021/04/28 07:11:40;;;;;;;5.10;3.30;;;26.40;38.20;;;;;;4909960;28;20758;-78
2021/04/28 07:14:06;;;;;;;3.60;2.80;;;27.00;36.30;;;;;;4919176;29;20201;-78
2021/04/28 07:16:32;;;;;;;4.78;4.35;;;27.20;36.90;;;;;;4896265;29;20711;-79
2021/04/28 07:18:58;;;;;;;6.60;4.20;;;26.90;31.80;;;;;;4915229;28;20178;-78
2021/04/28 07:21:24;;;;;;;4.40;3.30;;;26.60;33.90;;;;;;4897814;29;20276;-78
2021/04/28 07:23:50;;;;;;;3.87;3.23;;;26.60;34.20;;;;;;4913744;29;20577;-79
2021/04/28 07:26:16;;;;;;;5.10;3.40;;;26.40;33.00;;;;;;4913724;28;20574;-78
2021/04/28 07:28:42;;;;;;;3.60;3.30;;;26.00;32.80;;;;;;4913429;29;20193;-78
2021/04/28 07:31:08;;;;;;;9.50;2.77;;;25.80;33.60;;;;;;4913387;28;20851;-76
2021/04/28 07:33:34;;;;;;;3.53;3.23;;;26.10;34.60;;;;;;4914162;29;20232;-78
2021/04/28 07:36:00;;;;;;;4.07;3.57;;;26.20;33.60;;;;;;4897281;28;20613;-78
2021/04/28 07:38:26;;;;;;;3.77;3.43;;;26.20;33.90;;;;;;4914667;29;20169;-78
2021/04/28 07:40:52;;;;;;;3.20;2.77;;;26.20;34.10;;;;;;4916761;28;20605;-77
2021/04/28 07:43:18;;;;;;;4.23;2.50;;;26.40;34.10;;;;;;4896932;28;20593;-78
2021/04/28 07:45:44;;;;;;;5.73;2.60;;;26.60;34.00;;;;;;4908563;29;20597;-78
2021/04/28 07:48:12;;;;;;;4.73;4.03;;;26.50;33.10;;;;;;4918479;28;20181;-77
2021/04/28 07:50:38;;;;;;;4.40;3.23;;;26.40;33.00;;;;;;4913094;28;20239;-78
2021/04/28 07:53:05;;;;;;;5.40;3.00;;;26.30;32.60;;;;;;4882361;28;21133;-78
2021/04/28 07:55:31;;;;;;;5.13;3.50;;;26.30;32.90;;;;;;4881459;29;20590;-77
2021/04/28 07:57:58;;;;;;;11.37;4.50;;;26.40;32.90;;;;;;4913255;28;20639;-78
2021/04/28 08:00:26;;;;;;;5.07;3.37;;;26.40;32.60;;;;;;4913151;29;21240;-76
2021/04/28 08:02:52;;;;;;;3.97;3.30;;;26.30;32.20;;;;;;4896422;28;21188;-76
2021/04/28 08:05:18;;;;;;;7.13;3.60;;;26.40;32.40;;;;;;4913190;29;20721;-77
2021/04/28 08:07:44;;;;;;;3.97;3.40;;;26.60;32.60;;;;;;4896100;29;20182;-77
2021/04/28 08:10:10;;;;;;;3.30;3.00;;;26.80;32.70;;;;;;4912716;29;20589;-77
2021/04/28 08:12:36;;;;;;;3.83;2.97;;;27.20;33.10;;;;;;4913044;29;20186;-76
2021/04/28 08:15:04;;;;;;;3.53;3.17;;;27.80;33.50;;;;;;4896903;28;20582;-78
2021/04/28 08:17:30;;;;;;;4.83;2.60;;;28.40;33.30;;;;;;4917994;28;20570;-78
2021/04/28 08:19:57;;;;;;;4.90;4.40;;;28.90;33.40;;;;;;4913949;29;20745;-79
2021/04/28 08:22:22;;;;;;;4.40;3.40;;;28.90;30.30;;;;;;4914459;29;20263;-79
2021/04/28 08:24:48;;;;;;;6.47;3.43;;;29.30;31.60;;;;;;4899224;28;20578;-79
2021/04/28 08:27:14;;;;;;;4.53;4.03;;;29.50;31.00;;;;;;4915027;28;20174;-78
2021/04/28 08:29:40;;;;;;;4.03;3.57;;;29.60;31.00;;;;;;4915489;28;20180;-78
2021/04/28 08:32:06;;;;;;;5.53;3.77;;;29.30;30.00;;;;;;4897997;28;20700;-79
2021/04/28 08:34:32;;;;;;;4.97;3.20;;;29.10;30.00;;;;;;4898431;28;20629;-76
2021/04/28 08:36:58;;;;;;;4.07;3.67;;;29.10;30.30;;;;;;4913527;28;20588;-77
2021/04/28 08:39:24;;;;;;;4.00;3.60;;;29.40;30.70;;;;;;4914725;29;20252;-79
2021/04/28 08:41:50;;;;;;;4.10;3.77;;;29.60;31.00;;;;;;4913060;28;20198;-77
2021/04/28 08:44:16;;;;;;;4.80;3.23;;;29.90;30.80;;;;;;4913114;28;20223;-77
2021/04/28 08:46:42;;;;;;;5.17;3.23;;;30.00;30.00;;;;;;4928499;29;20709;-77
2021/04/28 08:49:09;;;;;;;5.00;3.97;;;29.90;29.40;;;;;;4912658;29;20566;-77
2021/04/28 08:51:37;;;;;;;3.57;3.07;;;29.90;29.60;;;;;;4904757;28;20650;-77
2021/04/28 08:54:06;;;;;;;3.97;3.30;;;29.80;29.50;;;;;;4918187;29;20697;-77
2021/04/28 08:56:33;;;;;;;5.28;3.88;;;29.70;29.50;;;;;;4912208;28;20807;-77
2021/04/28 08:59:04;;;;;;;5.30;4.03;;;29.80;29.30;;;;;;4912822;28;20185;-78
2021/04/28 09:01:31;;;;;;;3.43;3.13;;;29.70;29.30;;;;;;4913921;29;20728;-78
2021/04/28 09:03:58;;;;;;;3.33;3.00;;;29.60;28.90;;;;;;4914493;29;20986;-78
2021/04/28 09:06:35;;;;;;;6.37;3.87;;;29.60;29.30;;;;;;4912984;29;20659;-77
2021/04/28 09:09:20;;;;;;;9.27;4.13;;;30.00;29.80;;;;;;4913955;29;20899;-78
2021/04/28 09:11:51;;;;;;;5.97;3.63;;;30.60;30.00;;;;;;4913741;29;20743;-77
2021/04/28 09:14:19;;;;;;;3.47;3.17;;;31.40;30.20;;;;;;4914143;28;20907;-77
2021/04/28 09:16:54;;;;;;;4.87;3.80;;;31.90;29.90;;;;;;4914658;28;20675;-79
2021/04/28 09:19:43;;;;;;;2.97;2.67;;;32.10;28.90;;;;;;4916335;28;20931;-78
2021/04/28 09:22:27;;;;;;;5.03;3.17;;;32.30;29.30;;;;;;4917449;29;20605;-79
2021/04/28 09:25:53;;;;;;;3.83;3.27;;;32.80;29.50;;;;;;4961344;28;20731;-78
2021/04/28 09:29:00;;;;;;;4.53;3.87;;;33.60;28.70;;;;;;4918322;28;20611;-78
2021/04/28 09:31:30;;;;;;;4.40;3.80;;;34.30;29.30;;;;;;4919066;28;20636;-78
2021/04/28 09:33:58;;;;;;;4.57;3.50;;;34.80;28.60;;;;;;4915448;28;20580;-79
2021/04/28 09:36:33;;;;;;;3.77;3.30;;;34.90;28.40;;;;;;4915671;28;20577;-76
2021/04/28 09:39:11;;;;;;;3.40;2.83;;;35.10;28.40;;;;;;4915337;28;21044;-75
2021/04/28 09:41:50;;;;;;;3.67;3.37;;;35.40;27.90;;;;;;4915012;28;20636;-76
2021/04/28 09:44:19;;;;;;;5.37;2.90;;;35.60;26.00;;;;;;4915475;28;20620;-76
2021/04/28 09:47:05;;;;;;;3.27;2.97;;;35.70;27.50;;;;;;4930948;29;20576;-74
2021/04/28 09:49:42;;;;;;;2.83;2.53;;;35.90;26.70;;;;;;4913524;29;20621;-75
2021/04/28 09:52:09;;;;;;;3.63;3.20;;;35.90;26.80;;;;;;4914803;28;20671;-76
2021/04/28 09:54:35;;;;;;;4.03;3.40;;;35.70;26.30;;;;;;4914856;29;21311;-76
2021/04/28 09:57:01;;;;;;;5.07;2.80;;;35.60;26.80;;;;;;4914466;28;20684;-76
2021/04/28 09:59:50;;;;;;;4.70;3.83;;;35.70;26.40;;;;;;4882668;29;20679;-76
2021/04/28 10:02:29;;;;;;;3.97;3.60;;;35.70;26.40;;;;;;4882221;29;20560;-75
2021/04/28 10:05:18;;;;;;;4.10;3.47;;;35.80;25.80;;;;;;4914372;28;20581;-76
2021/04/28 10:07:43;;;;;;;3.43;2.90;;;35.60;25.90;;;;;;4914343;28;20620;-76
2021/04/28 10:10:11;;;;;;;4.10;3.70;;;35.60;26.20;;;;;;4914872;28;21132;-76
2021/04/28 10:12:37;;;;;;;4.70;4.30;;;35.70;26.10;;;;;;4897864;28;20541;-76
2021/04/28 10:15:05;;;;;;;4.23;3.60;;;35.70;25.50;;;;;;4913837;28;20677;-76
2021/04/28 10:17:32;;;;;;;4.03;3.60;;;35.70;24.90;;;;;;4914406;29;20573;-76
2021/04/28 10:20:00;;;;;;;3.67;3.37;;;35.30;24.80;;;;;;4914849;28;21155;-76
2021/04/28 10:22:28;;;;;;;4.63;3.80;;;35.00;24.30;;;;;;4897030;29;20652;-76
2021/04/28 10:24:56;;;;;;;4.40;4.00;;;34.80;24.60;;;;;;4915197;28;20576;-76
2021/04/28 10:27:22;;;;;;;4.43;4.03;;;34.70;24.40;;;;;;4914134;29;20650;-76
2021/04/28 10:29:50;;;;;;;4.97;3.90;;;34.40;24.50;;;;;;4914332;28;21106;-76
2021/04/28 10:32:19;;;;;;;4.33;3.93;;;34.30;24.50;;;;;;4897092;29;21015;-76
2021/04/28 10:35:10;;;;;;;3.73;3.43;;;34.00;24.20;;;;;;4897586;28;20575;-76
2021/04/28 10:37:38;;;;;;;6.27;4.07;;;34.00;24.50;;;;;;4915594;28;20579;-77
2021/04/28 10:40:19;;;;;;;4.60;4.20;;;34.00;24.40;;;;;;4914748;29;20692;-76
2021/04/28 10:42:44;;;;;;;4.10;3.70;;;33.90;23.50;;;;;;4915628;28;21094;-75
2021/04/28 10:45:22;;;;;;;4.30;3.70;;;33.40;23.70;;;;;;4908815;29;20594;-76
2021/04/28 10:47:51;;;;;;;4.40;4.00;;;33.00;24.10;;;;;;4907043;29;20201;-75
2021/04/28 10:50:21;;;;;;;4.13;3.80;;;32.70;23.90;;;;;;4898403;29;20612;-76
2021/04/28 10:53:07;;;;;;;6.43;3.87;;;32.60;24.30;;;;;;4898623;29;20595;-76
2021/04/28 10:55:53;;;;;;;6.43;4.20;;;32.60;24.10;;;;;;4915318;28;20583;-79
2021/04/28 10:58:32;;;;;;;4.73;3.83;;;32.40;24.00;;;;;;4914930;29;20582;-79
2021/04/28 11:00:58;;;;;;;4.07;3.77;;;32.20;24.10;;;;;;4915137;28;20638;-78
2021/04/28 11:03:42;;;;;;;4.20;3.80;;;32.10;24.30;;;;;;4902837;28;21123;-78
2021/04/28 11:06:20;;;;;;;5.17;4.50;;;32.00;24.20;;;;;;4888764;28;20585;-78
2021/04/28 11:09:10;;;;;;;4.77;3.40;;;31.70;23.50;;;;;;4903010;29;20627;-78
2021/04/28 11:11:41;;;;;;;5.20;4.03;;;31.60;23.90;;;;;;4925770;28;20636;-77
2021/04/28 11:16:44;;;;;;;4.13;3.83;;;31.10;24.80;;;;;;4904021;28;20668;-79
2021/04/28 11:19:30;;;;;;;3.63;3.33;;;31.20;25.40;;;;;;4915514;28;20570;-79
2021/04/28 11:22:18;;;;;;;4.07;3.67;;;31.50;25.80;;;;;;4919567;28;21067;-79
2021/04/28 11:25:07;;;;;;;5.40;4.03;;;31.80;25.10;;;;;;4897509;29;20574;-78
2021/04/28 11:27:54;;;;;;;7.60;4.20;;;32.00;25.00;;;;;;4898169;29;20601;-78
2021/04/28 11:30:37;;;;;;;4.20;3.90;;;31.80;24.50;;;;;;4914553;28;21031;-78
2021/04/28 11:33:12;;;;;;;4.20;3.80;;;31.80;25.00;;;;;;4914714;29;20582;-78
2021/04/28 11:35:44;;;;;;;4.57;4.03;;;31.70;24.40;;;;;;4897848;29;20944;-78
2021/04/28 11:38:12;;;;;;;5.83;5.30;;;31.40;24.20;;;;;;4929468;28;20585;-76
2021/04/28 11:40:50;;;;;;;5.30;4.80;;;30.90;23.40;;;;;;4983373;28;20625;-78
2021/04/28 11:43:24;;;;;;;6.30;5.70;;;30.30;23.60;;;;;;4998474;28;20619;-77
2021/04/28 11:45:53;;;;;;;6.10;5.60;;;30.00;23.50;;;;;;4978219;28;20599;-76
2021/04/28 11:48:24;;;;;;;6.00;5.23;;;29.50;23.50;;;;;;4919142;28;20648;-76
2021/04/28 11:50:55;;;;;;;7.40;6.03;;;29.20;23.80;;;;;;4913120;28;20669;-75
2021/04/28 11:53:23;;;;;;;4.83;4.37;;;28.90;24.00;;;;;;4913355;29;20578;-77
2021/04/28 11:55:49;;;;;;;5.10;4.60;;;28.60;24.20;;;;;;4912605;28;20574;-76
2021/04/28 11:58:29;;;;;;;5.30;4.80;;;28.60;24.70;;;;;;4900135;28;20585;-77
2021/04/28 12:01:10;;;;;;;6.03;5.43;;;28.50;24.70;;;;;;4913760;29;20636;-77
2021/04/28 12:03:59;;;;;;;9.57;5.83;;;28.50;24.50;;;;;;4914892;29;20577;-77
2021/04/28 12:06:51;;;;;;;5.73;3.80;;;28.30;24.80;;;;;;4914510;28;20582;-76
2021/04/28 12:09:26;;;;;;;7.53;6.83;;;28.30;24.80;;;;;;4897116;28;20581;-78
2021/04/28 12:12:12;;;;;;;8.50;6.60;;;28.20;24.70;;;;;;4914145;29;20621;-76
2021/04/28 12:14:40;;;;;;;7.30;6.70;;;28.00;24.80;;;;;;4914536;28;20620;-79
2021/04/28 12:17:06;;;;;;;5.30;4.90;;;28.00;24.80;;;;;;4914439;28;20582;-78
2021/04/28 12:19:33;;;;;;;5.87;4.77;;;27.90;25.10;;;;;;4898449;28;20627;-78
2021/04/28 12:22:06;;;;;;;6.97;6.38;;;27.90;25.30;;;;;;4914268;28;20804;-78
2021/04/28 12:24:39;;;;;;;7.70;5.90;;;27.80;25.20;;;;;;4898136;29;20177;-77
2021/04/28 12:27:10;;;;;;;7.97;5.90;;;27.80;25.10;;;;;;4900186;29;20610;-79
2021/04/28 12:29:42;;;;;;;5.77;5.33;;;27.70;24.80;;;;;;4914902;29;21023;-78
2021/04/28 12:32:09;;;;;;;4.33;3.93;;;27.40;24.70;;;;;;4899354;28;20602;-78
2021/04/28 12:34:37;;;;;;;6.45;5.70;;;27.30;25.00;;;;;;4919637;28;21167;-78
2021/04/28 12:37:25;;;;;;;4.80;4.37;;;27.30;26.10;;;;;;4923194;28;20196;-78
2021/04/28 12:40:05;;;;;;;5.73;5.10;;;27.30;25.70;;;;;;4879926;29;21154;-77
2021/04/28 12:42:34;;;;;;;6.97;4.57;;;27.40;25.60;;;;;;4910658;28;20660;-77
2021/04/28 12:45:04;;;;;;;4.70;4.30;;;27.40;25.40;;;;;;4909125;28;21183;-78
2021/04/28 12:47:33;;;;;;;5.90;5.30;;;27.20;25.10;;;;;;4913059;28;20946;-78
2021/04/28 12:50:12;;;;;;;7.93;7.17;;;26.80;24.90;;;;;;4898109;28;20592;-79
2021/04/28 12:52:41;;;;;;;7.87;5.87;;;26.30;25.20;;;;;;4913789;28;20612;-78
2021/04/28 12:55:31;;;;;;;4.97;4.50;;;26.00;24.90;;;;;;4919476;28;20574;-78
2021/04/28 12:58:06;;;;;;;6.60;5.47;;;25.70;25.30;;;;;;4899337;28;20577;-78
2021/04/28 13:00:43;;;;;;;5.83;5.30;;;25.50;25.70;;;;;;4900350;28;20964;-78
2021/04/28 13:03:11;;;;;;;6.10;5.40;;;25.50;25.70;;;;;;4902046;28;20570;-78
2021/04/28 13:06:02;;;;;;;5.43;4.90;;;25.50;26.10;;;;;;4911527;28;20566;-78
2021/04/28 13:08:41;;;;;;;4.83;4.40;;;25.50;26.30;;;;;;4885041;29;20888;-78
2021/04/28 13:11:25;;;;;;;5.00;4.50;;;25.50;26.10;;;;;;4918752;28;20616;-78